Decoded Metar for LFKB (BASTIA in CORSE ISL.) (IATA:BIA) | Meteo·Mobile Aviation Weather
aviador You're here:

LFKB Decoded Metar

BASTIA in CORSE ISL.
Report Time2019-07-21 17:30:00
UTC Time2019-07-21 18:00:04
Flight Rules vfr VFR
Wind120° at 06 kt
W.Decomp.*RWY 16: 4.5 kt HW 4 kt LCW
Visibility9999 m
Phenomena:N/A
Clouds:N/A
Expected CloudBase > 2,400 ft AGL from Temp-Dew spread
CeilingNone
Temp27°C (ISA +12)
Dew Point21°C (70% RH)
Heat Index28.9°C
QNH1020 hPa
Density Alt1,526 ft
Elevation39 ft
Report Wrong Elevation
Raw Report
LFKB 211730Z AUTO 12006KT CAVOK 27/21 Q1020 NOSIG=

Extra information for LFKB:More info

Metar Taf Metar & Taf Last 4 Metars F.Rules Stats Wind Profile Meteogram Temp Stats Airport Information Weather charts Add Link Nearby VenuesMetar ALERT Operation Metar Decoded Social comments